sensor_id;sensor_type;location;lat;lon;timestamp;P1;durP1;ratioP1;P2;durP2;ratioP2
703;SDS011;335;48.694;9.120;2022-12-18T00:01:34;40.33;;;22.90;;
703;SDS011;335;48.694;9.120;2022-12-18T00:04:01;42.67;;;22.27;;
703;SDS011;335;48.694;9.120;2022-12-18T00:06:28;40.55;;;24.27;;
703;SDS011;335;48.694;9.120;2022-12-18T00:08:54;44.97;;;22.98;;
703;SDS011;335;48.694;9.120;2022-12-18T00:11:22;39.97;;;24.90;;
703;SDS011;335;48.694;9.120;2022-12-18T00:13:49;44.38;;;25.33;;
703;SDS011;335;48.694;9.120;2022-12-18T00:16:15;43.65;;;22.77;;
703;SDS011;335;48.694;9.120;2022-12-18T00:18:47;38.83;;;22.00;;
703;SDS011;335;48.694;9.120;2022-12-18T00:21:17;38.80;;;22.80;;
703;SDS011;335;48.694;9.120;2022-12-18T00:23:43;37.38;;;22.48;;
703;SDS011;335;48.694;9.120;2022-12-18T00:26:13;36.38;;;21.60;;
703;SDS011;335;48.694;9.120;2022-12-18T00:28:40;38.95;;;24.48;;
703;SDS011;335;48.694;9.120;2022-12-18T00:31:07;40.37;;;21.53;;
703;SDS011;335;48.694;9.120;2022-12-18T00:33:35;43.53;;;23.17;;
703;SDS011;335;48.694;9.120;2022-12-18T00:36:01;37.30;;;21.35;;
703;SDS011;335;48.694;9.120;2022-12-18T00:38:27;37.03;;;20.55;;
703;SDS011;335;48.694;9.120;2022-12-18T00:40:52;44.70;;;22.60;;
703;SDS011;335;48.694;9.120;2022-12-18T00:43:17;36.70;;;21.53;;
703;SDS011;335;48.694;9.120;2022-12-18T00:45:43;39.20;;;22.80;;
703;SDS011;335;48.694;9.120;2022-12-18T00:48:09;37.47;;;21.40;;
703;SDS011;335;48.694;9.120;2022-12-18T00:50:34;39.23;;;22.70;;
703;SDS011;335;48.694;9.120;2022-12-18T00:52:59;36.43;;;22.73;;
703;SDS011;335;48.694;9.120;2022-12-18T00:55:25;39.20;;;21.93;;
703;SDS011;335;48.694;9.120;2022-12-18T00:57:51;34.90;;;20.67;;
703;SDS011;335;48.694;9.120;2022-12-18T01:00:17;34.00;;;19.38;;
703;SDS011;335;48.694;9.120;2022-12-18T01:02:42;33.00;;;19.07;;
703;SDS011;335;48.694;9.120;2022-12-18T01:05:09;34.67;;;19.27;;
703;SDS011;335;48.694;9.120;2022-12-18T01:07:36;32.67;;;20.58;;
703;SDS011;335;48.694;9.120;2022-12-18T01:10:01;36.80;;;21.73;;
703;SDS011;335;48.694;9.120;2022-12-18T01:12:27;33.47;;;19.23;;
703;SDS011;335;48.694;9.120;2022-12-18T01:14:52;32.27;;;18.20;;
703;SDS011;335;48.694;9.120;2022-12-18T01:17:18;32.47;;;19.17;;
703;SDS011;335;48.694;9.120;2022-12-18T01:19:43;35.27;;;19.30;;
703;SDS011;335;48.694;9.120;2022-12-18T01:22:08;31.70;;;19.10;;
703;SDS011;335;48.694;9.120;2022-12-18T01:24:34;36.50;;;20.40;;
703;SDS011;335;48.694;9.120;2022-12-18T01:26:59;35.97;;;19.87;;
703;SDS011;335;48.694;9.120;2022-12-18T01:29:24;35.63;;;19.20;;
703;SDS011;335;48.694;9.120;2022-12-18T01:31:50;36.13;;;19.60;;
703;SDS011;335;48.694;9.120;2022-12-18T01:34:16;34.40;;;19.27;;
703;SDS011;335;48.694;9.120;2022-12-18T01:36:43;31.90;;;19.60;;
703;SDS011;335;48.694;9.120;2022-12-18T01:39:12;30.73;;;18.70;;
703;SDS011;335;48.694;9.120;2022-12-18T01:41:38;33.97;;;17.98;;
703;SDS011;335;48.694;9.120;2022-12-18T01:47:33;32.63;;;21.13;;
703;SDS011;335;48.694;9.120;2022-12-18T01:52:37;34.53;;;19.33;;
703;SDS011;335;48.694;9.120;2022-12-18T01:55:03;39.07;;;20.40;;
703;SDS011;335;48.694;9.120;2022-12-18T01:57:31;35.58;;;19.83;;
703;SDS011;335;48.694;9.120;2022-12-18T01:59:57;38.90;;;20.10;;
703;SDS011;335;48.694;9.120;2022-12-18T02:02:26;43.22;;;22.50;;
703;SDS011;335;48.694;9.120;2022-12-18T02:04:53;32.33;;;19.20;;
703;SDS011;335;48.694;9.120;2022-12-18T02:09:54;35.80;;;20.88;;
703;SDS011;335;48.694;9.120;2022-12-18T02:12:24;35.78;;;21.33;;
703;SDS011;335;48.694;9.120;2022-12-18T02:15:05;29.30;;;17.65;;
703;SDS011;335;48.694;9.120;2022-12-18T02:17:39;32.65;;;18.67;;
703;SDS011;335;48.694;9.120;2022-12-18T02:25:59;35.45;;;20.85;;
703;SDS011;335;48.694;9.120;2022-12-18T02:28:31;39.90;;;20.65;;
703;SDS011;335;48.694;9.120;2022-12-18T02:30:58;37.50;;;19.98;;
703;SDS011;335;48.694;9.120;2022-12-18T02:33:27;33.63;;;19.98;;
703;SDS011;335;48.694;9.120;2022-12-18T02:35:53;33.13;;;18.70;;
703;SDS011;335;48.694;9.120;2022-12-18T02:38:19;32.92;;;19.30;;
703;SDS011;335;48.694;9.120;2022-12-18T02:40:44;34.23;;;21.20;;
703;SDS011;335;48.694;9.120;2022-12-18T02:43:12;34.25;;;20.50;;
703;SDS011;335;48.694;9.120;2022-12-18T02:48:15;41.13;;;23.00;;
703;SDS011;335;48.694;9.120;2022-12-18T02:50:48;37.53;;;22.25;;
703;SDS011;335;48.694;9.120;2022-12-18T02:53:49;34.97;;;20.92;;
703;SDS011;335;48.694;9.120;2022-12-18T02:56:20;43.58;;;23.25;;
703;SDS011;335;48.694;9.120;2022-12-18T02:58:59;40.10;;;22.80;;
703;SDS011;335;48.694;9.120;2022-12-18T03:01:28;38.10;;;20.77;;
703;SDS011;335;48.694;9.120;2022-12-18T03:06:50;41.65;;;21.65;;
703;SDS011;335;48.694;9.120;2022-12-18T03:09:21;39.53;;;21.88;;
703;SDS011;335;48.694;9.120;2022-12-18T03:11:52;37.15;;;22.30;;
703;SDS011;335;48.694;9.120;2022-12-18T03:14:40;44.38;;;21.27;;
703;SDS011;335;48.694;9.120;2022-12-18T03:17:07;39.53;;;21.05;;
703;SDS011;335;48.694;9.120;2022-12-18T03:19:35;37.88;;;21.25;;
703;SDS011;335;48.694;9.120;2022-12-18T03:22:04;37.22;;;21.27;;
703;SDS011;335;48.694;9.120;2022-12-18T03:24:31;34.58;;;21.40;;
703;SDS011;335;48.694;9.120;2022-12-18T03:26:58;40.10;;;23.05;;
703;SDS011;335;48.694;9.120;2022-12-18T03:29:48;40.00;;;23.35;;
703;SDS011;335;48.694;9.120;2022-12-18T03:32:21;42.13;;;22.10;;
703;SDS011;335;48.694;9.120;2022-12-18T03:34:50;38.65;;;20.60;;
703;SDS011;335;48.694;9.120;2022-12-18T03:37:16;40.42;;;22.60;;
703;SDS011;335;48.694;9.120;2022-12-18T03:39:41;43.23;;;24.10;;
703;SDS011;335;48.694;9.120;2022-12-18T03:42:25;46.20;;;25.13;;
703;SDS011;335;48.694;9.120;2022-12-18T03:44:58;50.13;;;25.02;;
703;SDS011;335;48.694;9.120;2022-12-18T03:47:47;38.60;;;22.02;;
703;SDS011;335;48.694;9.120;2022-12-18T03:56:06;35.95;;;21.75;;
703;SDS011;335;48.694;9.120;2022-12-18T03:58:32;35.70;;;23.02;;
703;SDS011;335;48.694;9.120;2022-12-18T04:01:01;43.92;;;24.40;;
703;SDS011;335;48.694;9.120;2022-12-18T04:03:29;42.58;;;24.30;;
703;SDS011;335;48.694;9.120;2022-12-18T04:05:56;37.40;;;22.38;;
703;SDS011;335;48.694;9.120;2022-12-18T04:08:24;36.88;;;21.55;;
703;SDS011;335;48.694;9.120;2022-12-18T04:10:49;32.95;;;19.38;;
703;SDS011;335;48.694;9.120;2022-12-18T04:13:24;37.63;;;22.10;;
703;SDS011;335;48.694;9.120;2022-12-18T04:15:53;36.88;;;21.60;;
703;SDS011;335;48.694;9.120;2022-12-18T04:18:18;37.00;;;21.40;;
703;SDS011;335;48.694;9.120;2022-12-18T04:20:44;33.70;;;19.50;;
703;SDS011;335;48.694;9.120;2022-12-18T04:23:10;37.70;;;21.20;;
703;SDS011;335;48.694;9.120;2022-12-18T04:25:35;40.37;;;22.77;;
703;SDS011;335;48.694;9.120;2022-12-18T04:28:00;41.03;;;22.83;;
703;SDS011;335;48.694;9.120;2022-12-18T04:30:26;36.60;;;21.83;;
703;SDS011;335;48.694;9.120;2022-12-18T04:32:51;40.23;;;23.00;;
703;SDS011;335;48.694;9.120;2022-12-18T04:35:16;42.60;;;22.00;;
703;SDS011;335;48.694;9.120;2022-12-18T04:37:42;40.97;;;23.00;;
703;SDS011;335;48.694;9.120;2022-12-18T04:40:07;35.67;;;21.40;;
703;SDS011;335;48.694;9.120;2022-12-18T04:42:33;36.20;;;20.37;;
703;SDS011;335;48.694;9.120;2022-12-18T04:44:58;38.63;;;22.40;;
703;SDS011;335;48.694;9.120;2022-12-18T04:47:24;33.53;;;20.77;;
703;SDS011;335;48.694;9.120;2022-12-18T04:49:49;40.87;;;22.47;;
703;SDS011;335;48.694;9.120;2022-12-18T04:52:14;31.60;;;20.57;;
703;SDS011;335;48.694;9.120;2022-12-18T04:54:40;35.17;;;21.23;;
703;SDS011;335;48.694;9.120;2022-12-18T04:57:05;43.43;;;24.47;;
703;SDS011;335;48.694;9.120;2022-12-18T04:59:30;37.07;;;24.07;;
703;SDS011;335;48.694;9.120;2022-12-18T05:01:55;42.17;;;23.67;;
703;SDS011;335;48.694;9.120;2022-12-18T05:04:21;46.57;;;25.00;;
703;SDS011;335;48.694;9.120;2022-12-18T05:06:46;41.90;;;24.37;;
703;SDS011;335;48.694;9.120;2022-12-18T05:09:11;41.53;;;24.80;;
703;SDS011;335;48.694;9.120;2022-12-18T05:11:37;41.57;;;23.13;;
703;SDS011;335;48.694;9.120;2022-12-18T05:14:02;43.37;;;25.33;;
703;SDS011;335;48.694;9.120;2022-12-18T05:16:28;43.43;;;23.67;;
703;SDS011;335;48.694;9.120;2022-12-18T05:18:53;37.40;;;23.37;;
703;SDS011;335;48.694;9.120;2022-12-18T05:21:18;36.40;;;22.50;;
703;SDS011;335;48.694;9.120;2022-12-18T05:23:44;42.33;;;22.50;;
703;SDS011;335;48.694;9.120;2022-12-18T05:26:09;41.07;;;23.13;;
703;SDS011;335;48.694;9.120;2022-12-18T05:28:40;38.47;;;23.60;;
703;SDS011;335;48.694;9.120;2022-12-18T05:31:05;36.23;;;20.67;;
703;SDS011;335;48.694;9.120;2022-12-18T05:33:31;37.17;;;21.03;;
703;SDS011;335;48.694;9.120;2022-12-18T05:35:58;40.85;;;23.00;;
703;SDS011;335;48.694;9.120;2022-12-18T05:38:25;39.45;;;22.58;;
703;SDS011;335;48.694;9.120;2022-12-18T05:40:51;35.00;;;19.52;;
703;SDS011;335;48.694;9.120;2022-12-18T05:43:17;36.23;;;20.97;;
703;SDS011;335;48.694;9.120;2022-12-18T05:45:43;43.83;;;22.00;;
703;SDS011;335;48.694;9.120;2022-12-18T05:48:09;38.93;;;19.90;;
703;SDS011;335;48.694;9.120;2022-12-18T05:50:38;36.40;;;20.17;;
703;SDS011;335;48.694;9.120;2022-12-18T05:53:05;33.83;;;20.02;;
703;SDS011;335;48.694;9.120;2022-12-18T05:55:34;39.75;;;21.75;;
703;SDS011;335;48.694;9.120;2022-12-18T05:58:00;42.15;;;22.88;;
703;SDS011;335;48.694;9.120;2022-12-18T06:00:26;36.80;;;22.10;;
703;SDS011;335;48.694;9.120;2022-12-18T06:02:51;36.60;;;22.00;;
703;SDS011;335;48.694;9.120;2022-12-18T06:05:16;40.30;;;20.90;;
703;SDS011;335;48.694;9.120;2022-12-18T06:07:42;31.93;;;19.47;;
703;SDS011;335;48.694;9.120;2022-12-18T06:10:07;37.50;;;20.40;;
703;SDS011;335;48.694;9.120;2022-12-18T06:12:32;37.10;;;22.70;;
703;SDS011;335;48.694;9.120;2022-12-18T06:15:01;41.53;;;23.60;;
703;SDS011;335;48.694;9.120;2022-12-18T06:17:29;36.33;;;24.27;;
703;SDS011;335;48.694;9.120;2022-12-18T06:19:55;36.10;;;21.55;;
703;SDS011;335;48.694;9.120;2022-12-18T06:22:21;38.07;;;21.67;;
703;SDS011;335;48.694;9.120;2022-12-18T06:24:46;34.67;;;21.73;;
703;SDS011;335;48.694;9.120;2022-12-18T06:27:12;40.43;;;23.03;;
703;SDS011;335;48.694;9.120;2022-12-18T06:29:37;39.93;;;21.73;;
703;SDS011;335;48.694;9.120;2022-12-18T06:32:02;33.80;;;20.10;;
703;SDS011;335;48.694;9.120;2022-12-18T06:34:28;34.03;;;20.73;;
703;SDS011;335;48.694;9.120;2022-12-18T06:36:57;42.80;;;22.95;;
703;SDS011;335;48.694;9.120;2022-12-18T06:39:22;36.53;;;21.00;;
703;SDS011;335;48.694;9.120;2022-12-18T06:41:47;33.07;;;20.07;;
703;SDS011;335;48.694;9.120;2022-12-18T06:44:13;42.50;;;24.03;;
703;SDS011;335;48.694;9.120;2022-12-18T06:46:38;35.57;;;21.80;;
703;SDS011;335;48.694;9.120;2022-12-18T06:49:03;33.13;;;19.43;;
703;SDS011;335;48.694;9.120;2022-12-18T06:51:29;32.47;;;19.67;;
703;SDS011;335;48.694;9.120;2022-12-18T06:53:54;35.03;;;20.63;;
703;SDS011;335;48.694;9.120;2022-12-18T06:56:19;36.73;;;20.43;;
703;SDS011;335;48.694;9.120;2022-12-18T06:58:45;35.17;;;18.93;;
703;SDS011;335;48.694;9.120;2022-12-18T07:01:11;30.33;;;18.63;;
703;SDS011;335;48.694;9.120;2022-12-18T07:03:38;33.15;;;19.23;;
703;SDS011;335;48.694;9.120;2022-12-18T07:06:03;32.78;;;20.42;;
703;SDS011;335;48.694;9.120;2022-12-18T07:08:29;37.73;;;21.80;;
703;SDS011;335;48.694;9.120;2022-12-18T07:10:55;40.78;;;20.90;;
703;SDS011;335;48.694;9.120;2022-12-18T07:13:21;37.87;;;20.13;;
703;SDS011;335;48.694;9.120;2022-12-18T07:15:46;31.67;;;19.10;;
703;SDS011;335;48.694;9.120;2022-12-18T07:18:11;31.17;;;17.63;;
703;SDS011;335;48.694;9.120;2022-12-18T07:20:37;34.60;;;19.40;;
703;SDS011;335;48.694;9.120;2022-12-18T07:23:03;34.33;;;21.57;;
703;SDS011;335;48.694;9.120;2022-12-18T07:25:30;36.17;;;21.13;;
703;SDS011;335;48.694;9.120;2022-12-18T07:27:58;35.05;;;20.48;;
703;SDS011;335;48.694;9.120;2022-12-18T07:30:23;38.90;;;21.50;;
703;SDS011;335;48.694;9.120;2022-12-18T07:32:49;35.30;;;21.03;;
703;SDS011;335;48.694;9.120;2022-12-18T07:35:14;31.87;;;20.40;;
703;SDS011;335;48.694;9.120;2022-12-18T07:37:39;32.53;;;19.27;;
703;SDS011;335;48.694;9.120;2022-12-18T07:40:05;37.83;;;22.17;;
703;SDS011;335;48.694;9.120;2022-12-18T07:42:31;37.40;;;21.33;;
703;SDS011;335;48.694;9.120;2022-12-18T07:44:57;42.57;;;22.60;;
703;SDS011;335;48.694;9.120;2022-12-18T07:47:23;41.17;;;23.13;;
703;SDS011;335;48.694;9.120;2022-12-18T07:49:48;38.47;;;21.07;;
703;SDS011;335;48.694;9.120;2022-12-18T07:52:13;35.57;;;20.33;;
703;SDS011;335;48.694;9.120;2022-12-18T07:54:39;38.83;;;22.60;;
703;SDS011;335;48.694;9.120;2022-12-18T07:57:05;40.65;;;22.10;;
703;SDS011;335;48.694;9.120;2022-12-18T07:59:31;36.23;;;20.90;;
703;SDS011;335;48.694;9.120;2022-12-18T08:01:56;38.90;;;21.63;;
703;SDS011;335;48.694;9.120;2022-12-18T08:04:21;34.93;;;21.30;;
703;SDS011;335;48.694;9.120;2022-12-18T08:06:47;40.47;;;23.07;;
703;SDS011;335;48.694;9.120;2022-12-18T08:09:12;41.43;;;22.30;;
703;SDS011;335;48.694;9.120;2022-12-18T08:11:37;36.50;;;20.33;;
703;SDS011;335;48.694;9.120;2022-12-18T08:14:03;45.37;;;27.03;;
703;SDS011;335;48.694;9.120;2022-12-18T08:16:28;32.77;;;21.13;;
703;SDS011;335;48.694;9.120;2022-12-18T08:18:55;37.88;;;22.85;;
703;SDS011;335;48.694;9.120;2022-12-18T08:21:22;42.47;;;23.17;;
703;SDS011;335;48.694;9.120;2022-12-18T08:23:50;40.67;;;23.80;;
703;SDS011;335;48.694;9.120;2022-12-18T08:26:16;39.10;;;22.33;;
703;SDS011;335;48.694;9.120;2022-12-18T08:28:42;37.30;;;23.30;;
703;SDS011;335;48.694;9.120;2022-12-18T08:31:07;39.83;;;23.93;;
703;SDS011;335;48.694;9.120;2022-12-18T08:33:33;34.40;;;22.73;;
703;SDS011;335;48.694;9.120;2022-12-18T08:35:59;33.47;;;21.27;;
703;SDS011;335;48.694;9.120;2022-12-18T08:38:25;37.20;;;22.50;;
703;SDS011;335;48.694;9.120;2022-12-18T08:40:58;38.20;;;21.50;;
703;SDS011;335;48.694;9.120;2022-12-18T08:43:27;36.97;;;21.08;;
703;SDS011;335;48.694;9.120;2022-12-18T08:46:11;31.58;;;20.17;;
703;SDS011;335;48.694;9.120;2022-12-18T08:48:36;39.13;;;22.03;;
703;SDS011;335;48.694;9.120;2022-12-18T08:51:02;38.63;;;22.10;;
703;SDS011;335;48.694;9.120;2022-12-18T08:53:27;40.63;;;23.00;;
703;SDS011;335;48.694;9.120;2022-12-18T08:55:53;39.00;;;23.80;;
703;SDS011;335;48.694;9.120;2022-12-18T08:58:18;40.70;;;23.60;;
703;SDS011;335;48.694;9.120;2022-12-18T09:00:44;42.30;;;25.77;;
703;SDS011;335;48.694;9.120;2022-12-18T09:03:16;48.57;;;27.50;;
703;SDS011;335;48.694;9.120;2022-12-18T09:05:42;37.22;;;24.02;;
703;SDS011;335;48.694;9.120;2022-12-18T09:08:08;49.53;;;29.60;;
703;SDS011;335;48.694;9.120;2022-12-18T09:10:34;33.13;;;22.93;;
703;SDS011;335;48.694;9.120;2022-12-18T09:12:59;29.57;;;21.97;;
703;SDS011;335;48.694;9.120;2022-12-18T09:15:25;28.00;;;20.77;;
703;SDS011;335;48.694;9.120;2022-12-18T09:17:51;27.30;;;20.20;;
703;SDS011;335;48.694;9.120;2022-12-18T09:20:17;27.10;;;20.90;;
703;SDS011;335;48.694;9.120;2022-12-18T09:22:43;25.30;;;19.80;;
703;SDS011;335;48.694;9.120;2022-12-18T09:25:08;22.20;;;17.80;;
703;SDS011;335;48.694;9.120;2022-12-18T09:27:34;22.33;;;19.23;;
703;SDS011;335;48.694;9.120;2022-12-18T09:29:59;20.13;;;18.00;;
703;SDS011;335;48.694;9.120;2022-12-18T09:32:25;21.50;;;18.63;;
703;SDS011;335;48.694;9.120;2022-12-18T09:34:50;21.77;;;19.07;;
703;SDS011;335;48.694;9.120;2022-12-18T09:37:16;21.07;;;18.80;;
703;SDS011;335;48.694;9.120;2022-12-18T09:39:41;22.90;;;19.47;;
703;SDS011;335;48.694;9.120;2022-12-18T09:42:08;21.60;;;19.50;;
703;SDS011;335;48.694;9.120;2022-12-18T09:44:51;22.13;;;19.80;;
703;SDS011;335;48.694;9.120;2022-12-18T09:47:19;23.50;;;21.00;;
703;SDS011;335;48.694;9.120;2022-12-18T09:49:49;23.23;;;20.73;;
703;SDS011;335;48.694;9.120;2022-12-18T09:54:58;22.20;;;19.87;;
703;SDS011;335;48.694;9.120;2022-12-18T09:57:28;21.53;;;19.20;;
703;SDS011;335;48.694;9.120;2022-12-18T09:59:57;20.80;;;18.80;;
703;SDS011;335;48.694;9.120;2022-12-18T10:02:26;22.83;;;20.40;;
703;SDS011;335;48.694;9.120;2022-12-18T10:05:01;22.97;;;20.67;;
703;SDS011;335;48.694;9.120;2022-12-18T10:13:19;23.07;;;20.63;;
703;SDS011;335;48.694;9.120;2022-12-18T10:16:09;23.17;;;20.57;;
703;SDS011;335;48.694;9.120;2022-12-18T10:21:51;23.93;;;21.07;;
703;SDS011;335;48.694;9.120;2022-12-18T10:27:52;22.77;;;20.47;;
703;SDS011;335;48.694;9.120;2022-12-18T10:30:21;23.97;;;21.10;;
703;SDS011;335;48.694;9.120;2022-12-18T10:32:47;21.63;;;19.03;;
703;SDS011;335;48.694;9.120;2022-12-18T10:35:23;22.77;;;20.30;;
703;SDS011;335;48.694;9.120;2022-12-18T10:40:32;22.87;;;20.57;;
703;SDS011;335;48.694;9.120;2022-12-18T10:43:03;23.33;;;20.97;;
703;SDS011;335;48.694;9.120;2022-12-18T10:45:29;22.50;;;20.20;;
703;SDS011;335;48.694;9.120;2022-12-18T10:47:55;23.40;;;21.00;;
703;SDS011;335;48.694;9.120;2022-12-18T10:50:33;22.10;;;19.90;;
703;SDS011;335;48.694;9.120;2022-12-18T10:53:00;22.20;;;19.90;;
703;SDS011;335;48.694;9.120;2022-12-18T10:55:31;23.40;;;21.07;;
703;SDS011;335;48.694;9.120;2022-12-18T10:58:16;22.37;;;19.93;;
703;SDS011;335;48.694;9.120;2022-12-18T11:01:33;22.90;;;20.50;;
703;SDS011;335;48.694;9.120;2022-12-18T11:03:38;21.97;;;19.77;;
703;SDS011;335;48.694;9.120;2022-12-18T11:06:12;21.90;;;19.57;;
703;SDS011;335;48.694;9.120;2022-12-18T11:08:43;22.23;;;19.93;;
703;SDS011;335;48.694;9.120;2022-12-18T11:11:21;21.67;;;19.40;;
703;SDS011;335;48.694;9.120;2022-12-18T11:14:01;21.80;;;19.77;;
703;SDS011;335;48.694;9.120;2022-12-18T11:16:28;22.10;;;19.80;;
703;SDS011;335;48.694;9.120;2022-12-18T11:18:59;20.77;;;18.73;;
703;SDS011;335;48.694;9.120;2022-12-18T11:21:54;22.67;;;20.47;;
703;SDS011;335;48.694;9.120;2022-12-18T11:24:23;24.37;;;21.97;;
703;SDS011;335;48.694;9.120;2022-12-18T11:26:51;24.00;;;21.17;;
703;SDS011;335;48.694;9.120;2022-12-18T11:29:17;24.23;;;21.63;;
703;SDS011;335;48.694;9.120;2022-12-18T11:31:43;23.57;;;21.07;;
703;SDS011;335;48.694;9.120;2022-12-18T11:34:10;25.97;;;23.23;;
703;SDS011;335;48.694;9.120;2022-12-18T11:36:42;24.23;;;21.43;;
703;SDS011;335;48.694;9.120;2022-12-18T11:39:24;27.67;;;23.47;;
703;SDS011;335;48.694;9.120;2022-12-18T11:42:03;26.40;;;21.17;;
703;SDS011;335;48.694;9.120;2022-12-18T11:44:43;26.20;;;22.97;;
703;SDS011;335;48.694;9.120;2022-12-18T11:47:18;26.97;;;22.17;;
703;SDS011;335;48.694;9.120;2022-12-18T11:49:43;26.67;;;22.67;;
703;SDS011;335;48.694;9.120;2022-12-18T11:52:16;23.43;;;20.80;;
703;SDS011;335;48.694;9.120;2022-12-18T11:54:44;26.00;;;22.83;;
703;SDS011;335;48.694;9.120;2022-12-18T11:57:34;23.63;;;21.07;;
703;SDS011;335;48.694;9.120;2022-12-18T12:00:20;25.50;;;22.70;;
703;SDS011;335;48.694;9.120;2022-12-18T12:08:14;24.80;;;21.13;;
703;SDS011;335;48.694;9.120;2022-12-18T12:13:51;26.70;;;22.40;;
703;SDS011;335;48.694;9.120;2022-12-18T12:32:51;28.33;;;21.37;;
703;SDS011;335;48.694;9.120;2022-12-18T12:35:28;29.97;;;22.80;;
703;SDS011;335;48.694;9.120;2022-12-18T12:38:05;32.40;;;23.77;;
703;SDS011;335;48.694;9.120;2022-12-18T12:40:35;25.43;;;18.80;;
703;SDS011;335;48.694;9.120;2022-12-18T12:43:05;28.60;;;20.43;;
703;SDS011;335;48.694;9.120;2022-12-18T12:45:47;30.30;;;22.17;;
703;SDS011;335;48.694;9.120;2022-12-18T12:48:16;28.07;;;21.27;;
703;SDS011;335;48.694;9.120;2022-12-18T12:50:44;29.67;;;22.70;;
703;SDS011;335;48.694;9.120;2022-12-18T12:53:13;28.60;;;20.63;;
703;SDS011;335;48.694;9.120;2022-12-18T12:55:51;31.00;;;22.83;;
703;SDS011;335;48.694;9.120;2022-12-18T12:58:20;32.47;;;21.20;;
703;SDS011;335;48.694;9.120;2022-12-18T13:08:56;30.37;;;21.20;;
703;SDS011;335;48.694;9.120;2022-12-18T13:11:30;31.15;;;20.45;;
703;SDS011;335;48.694;9.120;2022-12-18T13:14:29;37.83;;;24.50;;
703;SDS011;335;48.694;9.120;2022-12-18T13:19:42;41.00;;;28.20;;
703;SDS011;335;48.694;9.120;2022-12-18T13:22:20;38.57;;;26.57;;
703;SDS011;335;48.694;9.120;2022-12-18T13:24:47;38.40;;;28.10;;
703;SDS011;335;48.694;9.120;2022-12-18T13:35:53;38.83;;;26.42;;
703;SDS011;335;48.694;9.120;2022-12-18T13:41:00;33.72;;;25.42;;
703;SDS011;335;48.694;9.120;2022-12-18T13:43:45;38.28;;;26.67;;
703;SDS011;335;48.694;9.120;2022-12-18T13:48:58;38.20;;;27.63;;
703;SDS011;335;48.694;9.120;2022-12-18T13:51:26;44.65;;;27.23;;
703;SDS011;335;48.694;9.120;2022-12-18T13:57:01;38.35;;;24.23;;
703;SDS011;335;48.694;9.120;2022-12-18T13:59:35;33.40;;;23.15;;
703;SDS011;335;48.694;9.120;2022-12-18T14:02:07;34.53;;;21.88;;
703;SDS011;335;48.694;9.120;2022-12-18T14:04:38;27.08;;;20.20;;
703;SDS011;335;48.694;9.120;2022-12-18T14:07:46;31.67;;;22.57;;
703;SDS011;335;48.694;9.120;2022-12-18T14:09:57;31.83;;;22.15;;
703;SDS011;335;48.694;9.120;2022-12-18T14:12:27;34.13;;;22.45;;
703;SDS011;335;48.694;9.120;2022-12-18T14:20:50;32.53;;;20.65;;
703;SDS011;335;48.694;9.120;2022-12-18T14:23:27;40.33;;;21.73;;
703;SDS011;335;48.694;9.120;2022-12-18T14:26:00;29.60;;;20.52;;
703;SDS011;335;48.694;9.120;2022-12-18T14:28:26;34.15;;;20.67;;
703;SDS011;335;48.694;9.120;2022-12-18T14:30:52;32.13;;;20.00;;
703;SDS011;335;48.694;9.120;2022-12-18T14:33:24;32.92;;;19.25;;
703;SDS011;335;48.694;9.120;2022-12-18T14:35:55;27.65;;;18.45;;
703;SDS011;335;48.694;9.120;2022-12-18T14:38:33;30.50;;;19.65;;
703;SDS011;335;48.694;9.120;2022-12-18T14:41:00;31.67;;;20.77;;
703;SDS011;335;48.694;9.120;2022-12-18T14:43:28;30.77;;;20.42;;
703;SDS011;335;48.694;9.120;2022-12-18T14:45:55;35.50;;;22.35;;
703;SDS011;335;48.694;9.120;2022-12-18T14:53:35;39.37;;;25.57;;
703;SDS011;335;48.694;9.120;2022-12-18T14:56:15;33.15;;;24.05;;
703;SDS011;335;48.694;9.120;2022-12-18T14:58:50;40.75;;;24.65;;
703;SDS011;335;48.694;9.120;2022-12-18T15:01:22;38.60;;;23.45;;
703;SDS011;335;48.694;9.120;2022-12-18T15:03:50;39.47;;;24.60;;
703;SDS011;335;48.694;9.120;2022-12-18T15:06:27;41.30;;;25.92;;
703;SDS011;335;48.694;9.120;2022-12-18T15:08:55;35.80;;;23.15;;
703;SDS011;335;48.694;9.120;2022-12-18T15:11:28;40.87;;;26.27;;
703;SDS011;335;48.694;9.120;2022-12-18T15:13:58;42.13;;;26.35;;
703;SDS011;335;48.694;9.120;2022-12-18T15:16:24;42.95;;;24.38;;
703;SDS011;335;48.694;9.120;2022-12-18T15:18:49;45.23;;;25.73;;
703;SDS011;335;48.694;9.120;2022-12-18T15:21:16;41.03;;;26.57;;
703;SDS011;335;48.694;9.120;2022-12-18T15:26:08;40.37;;;23.63;;
703;SDS011;335;48.694;9.120;2022-12-18T15:33:43;41.42;;;26.55;;
703;SDS011;335;48.694;9.120;2022-12-18T15:36:15;45.53;;;27.20;;
703;SDS011;335;48.694;9.120;2022-12-18T15:38:41;45.97;;;26.80;;
703;SDS011;335;48.694;9.120;2022-12-18T15:41:11;51.67;;;31.13;;
703;SDS011;335;48.694;9.120;2022-12-18T15:43:42;54.85;;;30.38;;
703;SDS011;335;48.694;9.120;2022-12-18T15:46:12;51.40;;;31.27;;
703;SDS011;335;48.694;9.120;2022-12-18T15:48:39;48.75;;;30.55;;
703;SDS011;335;48.694;9.120;2022-12-18T15:51:13;46.17;;;29.00;;
703;SDS011;335;48.694;9.120;2022-12-18T15:53:59;42.35;;;27.92;;
703;SDS011;335;48.694;9.120;2022-12-18T15:56:25;47.67;;;27.48;;
703;SDS011;335;48.694;9.120;2022-12-18T15:59:19;44.92;;;29.90;;
703;SDS011;335;48.694;9.120;2022-12-18T16:01:49;47.45;;;30.05;;
703;SDS011;335;48.694;9.120;2022-12-18T16:04:17;49.75;;;32.30;;
703;SDS011;335;48.694;9.120;2022-12-18T16:06:45;44.10;;;27.40;;
703;SDS011;335;48.694;9.120;2022-12-18T16:09:11;50.37;;;30.00;;
703;SDS011;335;48.694;9.120;2022-12-18T16:11:36;50.30;;;30.40;;
703;SDS011;335;48.694;9.120;2022-12-18T16:16:31;52.10;;;32.40;;
703;SDS011;335;48.694;9.120;2022-12-18T16:18:56;53.40;;;32.77;;
703;SDS011;335;48.694;9.120;2022-12-18T16:21:22;55.00;;;33.53;;
703;SDS011;335;48.694;9.120;2022-12-18T16:23:47;53.40;;;31.80;;
703;SDS011;335;48.694;9.120;2022-12-18T16:26:12;48.37;;;30.30;;
703;SDS011;335;48.694;9.120;2022-12-18T16:28:38;54.97;;;30.33;;
703;SDS011;335;48.694;9.120;2022-12-18T16:31:04;47.38;;;27.90;;
703;SDS011;335;48.694;9.120;2022-12-18T16:33:29;49.13;;;27.93;;
703;SDS011;335;48.694;9.120;2022-12-18T16:35:54;45.93;;;27.43;;
703;SDS011;335;48.694;9.120;2022-12-18T16:38:20;46.23;;;27.93;;
703;SDS011;335;48.694;9.120;2022-12-18T16:40:45;49.77;;;31.50;;
703;SDS011;335;48.694;9.120;2022-12-18T16:43:29;46.80;;;31.45;;
703;SDS011;335;48.694;9.120;2022-12-18T16:45:54;44.77;;;25.90;;
703;SDS011;335;48.694;9.120;2022-12-18T16:48:23;45.88;;;25.80;;
703;SDS011;335;48.694;9.120;2022-12-18T16:50:49;48.83;;;27.87;;
703;SDS011;335;48.694;9.120;2022-12-18T16:53:14;41.70;;;25.40;;
703;SDS011;335;48.694;9.120;2022-12-18T16:55:39;46.63;;;28.37;;
703;SDS011;335;48.694;9.120;2022-12-18T16:58:05;48.03;;;28.17;;
703;SDS011;335;48.694;9.120;2022-12-18T17:00:30;51.43;;;30.33;;
703;SDS011;335;48.694;9.120;2022-12-18T17:02:55;49.37;;;30.03;;
703;SDS011;335;48.694;9.120;2022-12-18T17:05:21;44.37;;;29.43;;
703;SDS011;335;48.694;9.120;2022-12-18T17:07:46;50.10;;;31.87;;
703;SDS011;335;48.694;9.120;2022-12-18T17:10:11;43.93;;;25.77;;
703;SDS011;335;48.694;9.120;2022-12-18T17:12:37;40.47;;;27.13;;
703;SDS011;335;48.694;9.120;2022-12-18T17:15:02;47.23;;;28.77;;
703;SDS011;335;48.694;9.120;2022-12-18T17:17:28;52.23;;;31.10;;
703;SDS011;335;48.694;9.120;2022-12-18T17:19:53;45.17;;;26.90;;
703;SDS011;335;48.694;9.120;2022-12-18T17:22:19;41.83;;;26.57;;